Time;durP1;ratioP1;P1;durP2;ratioP2;P2;SDS_P1;SDS_P2;PMS_P1;PMS_P2;Temp;Humidity;BMP_temperature;BMP_pressure;BME280_temperature;BME280_humidity;BME280_pressure;Samples;Min_cycle;Max_cycle;Signal;HPM_P1;HPM_P2
2021/09/21 00:01:54;;;;;;;3.70;0.77;;;22.70;72.40;;;;;;5121513;28;20279;-35
2021/09/21 00:04:26;;;;;;;0.95;0.90;;;22.70;72.30;;;;;;5122232;28;20024;-35
2021/09/21 00:06:54;;;;;;;0.80;0.80;;;22.70;72.40;;;;;;5122985;28;20027;-35
2021/09/21 00:09:20;;;;;;;0.70;0.70;;;22.70;72.60;;;;;;5118085;28;20035;-36
2021/09/21 00:11:46;;;;;;;1.00;0.80;;;22.70;72.90;;;;;;5122718;28;20027;-36
2021/09/21 00:14:13;;;;;;;0.95;0.90;;;22.70;73.00;;;;;;5122164;28;20098;-36
2021/09/21 00:16:39;;;;;;;1.00;0.93;;;22.70;72.90;;;;;;5125075;28;20035;-36
2021/09/21 00:19:05;;;;;;;0.80;0.80;;;22.70;73.10;;;;;;5124253;28;20778;-36
2021/09/21 00:21:31;;;;;;;1.02;0.80;;;22.70;73.20;;;;;;5125589;28;20044;-36
2021/09/21 00:23:57;;;;;;;1.80;0.90;;;22.70;73.40;;;;;;5125931;28;20023;-36
2021/09/21 00:26:23;;;;;;;0.80;0.80;;;22.70;72.50;;;;;;5126506;28;20024;-36
2021/09/21 00:28:49;;;;;;;0.80;0.80;;;22.70;70.90;;;;;;5126785;28;20046;-36
2021/09/21 00:31:18;;;;;;;1.45;0.80;;;22.70;70.90;;;;;;5126540;28;20062;-36
2021/09/21 00:33:50;;;;;;;0.93;0.80;;;22.70;70.20;;;;;;5125865;28;20063;-36
2021/09/21 00:36:16;;;;;;;0.80;0.80;;;22.70;71.60;;;;;;5126579;28;20036;-36
2021/09/21 00:38:43;;;;;;;0.90;0.90;;;22.70;72.40;;;;;;5107374;28;20024;-36
2021/09/21 00:41:10;;;;;;;1.43;1.10;;;22.70;73.10;;;;;;5126562;28;20041;-37
2021/09/21 00:43:36;;;;;;;0.90;0.90;;;22.70;73.60;;;;;;5125756;28;20026;-36
2021/09/21 00:46:02;;;;;;;1.02;0.93;;;22.70;73.80;;;;;;5107277;28;20024;-36
2021/09/21 00:48:28;;;;;;;1.00;0.90;;;22.70;73.90;;;;;;5126405;28;20039;-36
2021/09/21 00:50:54;;;;;;;1.25;1.08;;;22.70;74.10;;;;;;5125998;28;20150;-36
2021/09/21 00:53:20;;;;;;;0.90;0.90;;;22.70;74.20;;;;;;5125803;28;20027;-36
2021/09/21 00:55:47;;;;;;;1.10;1.00;;;22.70;74.20;;;;;;5125411;28;20031;-36
2021/09/21 00:58:13;;;;;;;0.80;0.80;;;22.70;74.20;;;;;;5119620;28;20036;-36
2021/09/21 01:00:39;;;;;;;0.98;0.93;;;22.70;74.90;;;;;;5115389;28;20019;-36
2021/09/21 01:03:05;;;;;;;1.40;0.90;;;22.70;73.60;;;;;;5125415;28;20034;-36
2021/09/21 01:05:32;;;;;;;1.20;1.10;;;22.70;72.30;;;;;;5107177;28;20019;-36
2021/09/21 01:07:58;;;;;;;1.08;0.98;;;22.70;71.30;;;;;;5109507;28;20024;-36
2021/09/21 01:10:27;;;;;;;1.05;0.95;;;22.70;71.10;;;;;;5125401;28;20023;-36
2021/09/21 01:12:53;;;;;;;1.00;0.90;;;22.70;72.00;;;;;;5107643;28;20555;-36
2021/09/21 01:15:19;;;;;;;1.20;1.10;;;22.70;72.90;;;;;;5125073;28;20048;-36
2021/09/21 01:17:46;;;;;;;1.00;0.80;;;22.70;73.50;;;;;;5122611;28;20040;-36
2021/09/21 01:20:13;;;;;;;1.20;1.10;;;22.70;73.50;;;;;;5116179;28;20092;-36
2021/09/21 01:22:39;;;;;;;1.75;1.00;;;22.70;73.60;;;;;;5125237;28;20027;-36
2021/09/21 01:25:06;;;;;;;0.95;0.90;;;22.70;73.90;;;;;;5125511;28;20049;-36
2021/09/21 01:27:32;;;;;;;3.33;1.05;;;22.70;73.90;;;;;;5108432;28;20117;-36
2021/09/21 01:29:58;;;;;;;0.88;0.88;;;22.70;73.80;;;;;;5125681;28;20036;-36
2021/09/21 01:32:25;;;;;;;1.48;1.10;;;22.70;73.80;;;;;;5125476;28;20055;-36
2021/09/21 01:34:51;;;;;;;1.40;1.10;;;22.70;73.80;;;;;;5106401;28;20016;-36
2021/09/21 01:37:17;;;;;;;1.10;1.00;;;22.70;73.80;;;;;;5124614;28;20143;-36
2021/09/21 01:39:43;;;;;;;0.87;0.87;;;22.70;73.80;;;;;;5105649;28;20031;-36
2021/09/21 01:42:10;;;;;;;1.10;0.90;;;22.70;73.80;;;;;;5106544;28;20264;-36
2021/09/21 01:44:36;;;;;;;1.30;1.00;;;22.70;73.80;;;;;;5125109;28;20077;-36
2021/09/21 01:47:04;;;;;;;1.20;1.10;;;22.70;73.80;;;;;;5124630;28;20119;-36
2021/09/21 01:49:39;;;;;;;1.20;1.02;;;22.70;73.80;;;;;;5124984;28;20028;-36
2021/09/21 01:52:15;;;;;;;3.00;1.23;;;22.70;73.70;;;;;;5124368;28;20102;-36
2021/09/21 01:55:02;;;;;;;2.00;1.17;;;22.70;73.80;;;;;;5124718;28;20031;-36
2021/09/21 02:00:13;;;;;;;1.30;1.20;;;22.70;73.80;;;;;;5110081;28;20068;-36
2021/09/21 02:02:39;;;;;;;1.17;1.03;;;22.70;73.80;;;;;;5124248;28;20081;-36
2021/09/21 02:05:05;;;;;;;1.30;1.20;;;22.70;73.80;;;;;;5123501;28;20267;-36
2021/09/21 02:07:32;;;;;;;1.20;1.10;;;22.70;73.90;;;;;;5123439;28;20027;-36
2021/09/21 02:09:58;;;;;;;1.45;1.35;;;22.70;73.90;;;;;;5105853;28;20705;-36
2021/09/21 02:12:24;;;;;;;1.42;1.13;;;22.70;73.80;;;;;;5123241;28;20034;-36
2021/09/21 02:14:50;;;;;;;1.38;1.20;;;22.70;73.90;;;;;;5123185;28;20015;-36
2021/09/21 02:17:16;;;;;;;1.30;1.20;;;22.80;74.00;;;;;;5123655;28;20143;-36
2021/09/21 02:19:42;;;;;;;1.77;1.08;;;22.70;73.90;;;;;;5122280;28;20024;-36
2021/09/21 02:22:09;;;;;;;1.05;0.95;;;22.80;73.90;;;;;;5124360;28;20023;-36
2021/09/21 02:24:35;;;;;;;1.30;1.20;;;22.80;73.90;;;;;;5123574;28;20031;-36
2021/09/21 02:27:02;;;;;;;1.10;1.00;;;22.80;73.80;;;;;;5124378;28;20028;-36
2021/09/21 02:29:29;;;;;;;1.13;1.00;;;22.80;72.50;;;;;;5123963;28;20027;-36
2021/09/21 02:31:55;;;;;;;0.88;0.88;;;22.70;71.60;;;;;;5117845;28;20057;-36
2021/09/21 02:34:22;;;;;;;1.67;1.10;;;22.70;71.50;;;;;;5123121;28;20058;-36
2021/09/21 02:36:48;;;;;;;1.75;1.17;;;22.80;71.80;;;;;;5123446;28;20070;-36
2021/09/21 02:39:14;;;;;;;1.35;1.25;;;22.80;72.90;;;;;;5122368;28;20057;-36
2021/09/21 02:41:40;;;;;;;1.50;1.27;;;22.70;73.30;;;;;;5123116;28;20038;-36
2021/09/21 02:44:06;;;;;;;1.50;1.30;;;22.70;73.50;;;;;;5119314;28;20020;-36
2021/09/21 02:46:32;;;;;;;2.33;1.35;;;22.70;73.60;;;;;;5122835;28;20032;-36
2021/09/21 02:48:58;;;;;;;1.08;1.05;;;22.70;73.60;;;;;;5123193;28;20045;-36
2021/09/21 02:51:25;;;;;;;1.33;1.23;;;22.70;73.40;;;;;;5123379;28;20055;-36
2021/09/21 02:53:51;;;;;;;1.48;1.23;;;22.70;73.50;;;;;;5122645;28;20020;-36
2021/09/21 02:56:17;;;;;;;1.20;1.10;;;22.70;73.40;;;;;;5123639;28;20033;-36
2021/09/21 02:58:43;;;;;;;1.20;1.08;;;22.70;73.30;;;;;;5123497;28;20026;-36
2021/09/21 03:01:10;;;;;;;0.90;0.80;;;22.70;72.30;;;;;;5123936;28;20783;-36
2021/09/21 03:03:46;;;;;;;1.00;0.90;;;22.70;71.30;;;;;;5123650;28;20023;-36
2021/09/21 03:06:22;;;;;;;0.90;0.90;;;22.70;71.40;;;;;;5123436;28;20061;-36
2021/09/21 03:08:49;;;;;;;1.33;1.23;;;22.70;72.10;;;;;;5123320;28;20024;-37
2021/09/21 03:11:25;;;;;;;1.15;0.95;;;22.70;72.80;;;;;;5123963;28;20087;-36
2021/09/21 03:17:07;;;;;;;2.38;1.20;;;22.70;73.30;;;;;;5123715;28;20031;-36
2021/09/21 03:19:30;;;;;;;1.73;1.05;;;22.70;73.40;;;;;;5103516;28;20088;-36
2021/09/21 03:21:57;;;;;;;1.50;1.08;;;22.70;73.30;;;;;;5103196;28;20032;-36
2021/09/21 03:24:23;;;;;;;0.77;0.77;;;22.70;73.20;;;;;;5121178;28;20036;-36
2021/09/21 03:26:50;;;;;;;1.63;1.33;;;22.70;73.20;;;;;;5123032;28;20051;-36
2021/09/21 03:29:17;;;;;;;1.27;1.08;;;22.70;73.10;;;;;;5122364;28;20019;-36
2021/09/21 03:31:45;;;;;;;2.25;1.05;;;22.70;73.10;;;;;;5122853;28;20028;-36
2021/09/21 03:34:11;;;;;;;1.10;1.00;;;22.70;73.20;;;;;;5117623;28;20045;-36
2021/09/21 03:36:38;;;;;;;1.52;1.00;;;22.70;73.20;;;;;;5122651;28;20036;-36
2021/09/21 03:39:05;;;;;;;1.20;1.10;;;22.70;73.20;;;;;;5122347;28;20032;-36
2021/09/21 03:41:31;;;;;;;1.55;1.25;;;22.70;73.30;;;;;;5122856;28;20098;-36
2021/09/21 03:43:58;;;;;;;0.90;0.90;;;22.70;73.20;;;;;;5123441;28;20034;-36
2021/09/21 03:46:24;;;;;;;1.10;1.00;;;22.70;73.30;;;;;;5123074;28;20063;-36
2021/09/21 03:48:54;;;;;;;1.83;1.05;;;22.70;73.30;;;;;;5122299;28;20023;-36
2021/09/21 03:51:23;;;;;;;0.90;0.90;;;22.70;73.30;;;;;;5126758;28;20055;-37
2021/09/21 03:53:50;;;;;;;1.20;1.00;;;22.70;73.40;;;;;;5125251;28;20024;-36
2021/09/21 03:56:16;;;;;;;1.20;1.10;;;22.70;73.40;;;;;;5134893;27;20048;-36
2021/09/21 03:58:42;;;;;;;2.55;1.25;;;22.70;73.40;;;;;;5136752;27;20057;-36
2021/09/21 04:01:09;;;;;;;1.10;1.02;;;22.70;73.40;;;;;;5129589;27;20081;-37
2021/09/21 04:03:35;;;;;;;0.85;0.85;;;22.70;73.50;;;;;;5133580;27;20024;-37
2021/09/21 04:06:02;;;;;;;0.77;0.70;;;22.70;73.00;;;;;;5129764;27;20032;-36
2021/09/21 04:08:29;;;;;;;0.82;0.82;;;22.70;72.20;;;;;;5129648;27;20027;-37
2021/09/21 04:10:55;;;;;;;1.67;1.02;;;22.70;72.00;;;;;;5127137;28;20031;-36
2021/09/21 04:13:21;;;;;;;1.00;0.90;;;22.70;72.70;;;;;;5125818;28;20035;-36
2021/09/21 04:15:48;;;;;;;1.93;1.00;;;22.70;73.10;;;;;;5126508;28;20294;-36
2021/09/21 04:18:14;;;;;;;1.13;0.95;;;22.70;73.40;;;;;;5126982;28;20054;-36
2021/09/21 04:20:41;;;;;;;0.88;0.88;;;22.70;73.50;;;;;;5125902;28;20023;-36
2021/09/21 04:23:08;;;;;;;0.85;0.82;;;22.70;73.40;;;;;;5124235;27;20019;-36
2021/09/21 04:25:34;;;;;;;1.25;0.80;;;22.70;73.40;;;;;;5121914;27;20036;-36
2021/09/21 04:28:00;;;;;;;0.80;0.80;;;22.70;73.40;;;;;;5105812;28;20032;-37
2021/09/21 04:30:27;;;;;;;1.13;0.95;;;22.70;73.30;;;;;;5123019;28;20028;-36
2021/09/21 04:32:53;;;;;;;2.55;1.10;;;22.70;73.30;;;;;;5105994;28;20028;-36
2021/09/21 04:35:19;;;;;;;1.13;0.87;;;22.70;73.30;;;;;;5112501;28;20027;-36
2021/09/21 04:37:46;;;;;;;0.65;0.63;;;22.70;73.20;;;;;;5126663;28;20895;-36
2021/09/21 04:40:12;;;;;;;0.90;0.90;;;22.70;73.30;;;;;;5125993;28;20080;-36
2021/09/21 04:42:38;;;;;;;1.40;0.90;;;22.70;73.10;;;;;;5108843;28;20028;-36
2021/09/21 04:45:05;;;;;;;0.75;0.75;;;22.70;73.10;;;;;;5106063;28;20028;-36
2021/09/21 04:47:31;;;;;;;1.70;1.00;;;22.70;73.20;;;;;;5106037;28;20020;-36
2021/09/21 04:49:57;;;;;;;2.28;0.98;;;22.70;73.20;;;;;;5109749;28;20110;-36
2021/09/21 04:52:24;;;;;;;0.70;0.57;;;22.70;73.10;;;;;;5115477;28;20604;-37
2021/09/21 04:54:50;;;;;;;1.00;0.90;;;22.70;73.20;;;;;;5126157;28;20042;-36
2021/09/21 04:57:16;;;;;;;1.00;0.90;;;22.70;73.10;;;;;;5126012;28;20059;-37
2021/09/21 04:59:42;;;;;;;2.63;0.90;;;22.70;73.10;;;;;;5125456;28;20030;-36
2021/09/21 05:02:08;;;;;;;1.42;0.70;;;22.70;73.20;;;;;;5125035;28;20027;-36
2021/09/21 05:04:34;;;;;;;1.95;0.80;;;22.70;73.20;;;;;;5125985;28;20050;-37
2021/09/21 05:07:01;;;;;;;0.82;0.80;;;22.70;73.20;;;;;;5125746;28;20538;-36
2021/09/21 05:09:27;;;;;;;1.17;0.80;;;22.70;73.10;;;;;;5125654;28;20034;-36
2021/09/21 05:11:53;;;;;;;1.35;0.80;;;22.70;73.20;;;;;;5125596;28;20031;-36
2021/09/21 05:14:19;;;;;;;1.30;0.80;;;22.70;73.20;;;;;;5125903;28;20031;-36
2021/09/21 05:16:45;;;;;;;0.77;0.63;;;22.70;73.20;;;;;;5125346;28;20046;-36
2021/09/21 05:19:11;;;;;;;2.47;0.80;;;22.70;73.30;;;;;;5124415;28;20020;-36
2021/09/21 05:21:39;;;;;;;1.38;0.80;;;22.70;73.30;;;;;;5125306;28;20094;-36
2021/09/21 05:24:06;;;;;;;0.80;0.80;;;22.70;73.30;;;;;;5125697;28;20054;-36
2021/09/21 05:26:32;;;;;;;3.40;0.70;;;22.70;73.40;;;;;;5125774;28;20032;-36
2021/09/21 05:28:58;;;;;;;2.05;0.90;;;22.70;73.40;;;;;;5125579;28;20547;-37
2021/09/21 05:31:24;;;;;;;0.70;0.70;;;22.70;73.40;;;;;;5125145;28;20027;-36
2021/09/21 05:33:51;;;;;;;1.23;0.67;;;22.70;73.40;;;;;;5124846;28;20028;-36
2021/09/21 05:36:17;;;;;;;1.00;0.80;;;22.70;73.40;;;;;;5124941;28;20039;-36
2021/09/21 05:38:43;;;;;;;1.02;0.70;;;22.70;73.40;;;;;;5125640;28;20024;-37
2021/09/21 05:41:09;;;;;;;1.08;0.77;;;22.70;73.40;;;;;;5124990;28;20039;-37
2021/09/21 05:43:36;;;;;;;1.48;0.70;;;22.70;73.40;;;;;;5125457;28;20023;-36
2021/09/21 05:46:02;;;;;;;0.82;0.77;;;22.70;73.40;;;;;;5125408;28;20024;-36
2021/09/21 05:48:28;;;;;;;0.90;0.80;;;22.70;73.40;;;;;;5125253;28;20030;-36
2021/09/21 05:50:55;;;;;;;1.45;0.80;;;22.70;73.40;;;;;;5124753;28;20063;-36
2021/09/21 05:53:21;;;;;;;0.75;0.75;;;22.70;73.50;;;;;;5125202;28;20563;-37
2021/09/21 05:55:47;;;;;;;1.13;0.90;;;22.70;73.50;;;;;;5124835;28;20016;-36
2021/09/21 05:58:13;;;;;;;0.80;0.80;;;22.70;73.50;;;;;;5123809;28;20027;-36
2021/09/21 06:00:39;;;;;;;0.93;0.85;;;22.70;73.50;;;;;;5108447;28;20043;-36
2021/09/21 06:03:06;;;;;;;1.08;0.70;;;22.70;73.50;;;;;;5124706;28;20057;-36
2021/09/21 06:05:32;;;;;;;0.90;0.90;;;22.70;73.50;;;;;;5124850;28;20117;-36
2021/09/21 06:07:58;;;;;;;1.00;0.60;;;22.70;73.60;;;;;;5123704;28;20016;-36
2021/09/21 06:10:24;;;;;;;0.90;0.60;;;22.70;73.50;;;;;;5123952;28;20028;-36
2021/09/21 06:12:51;;;;;;;0.73;0.73;;;22.70;73.60;;;;;;5123728;28;20331;-36
2021/09/21 06:15:19;;;;;;;1.23;0.80;;;22.70;73.50;;;;;;5124449;28;20031;-36
2021/09/21 06:17:45;;;;;;;2.42;0.60;;;22.70;73.60;;;;;;5122282;28;20032;-36
2021/09/21 06:20:14;;;;;;;1.03;0.60;;;22.70;73.60;;;;;;5123680;28;20085;-36
2021/09/21 06:22:42;;;;;;;1.00;0.70;;;22.70;73.60;;;;;;5124541;28;20034;-36
2021/09/21 06:25:09;;;;;;;0.60;0.60;;;22.70;73.60;;;;;;5124261;28;20027;-36
2021/09/21 06:27:35;;;;;;;0.68;0.60;;;22.70;73.60;;;;;;5124624;28;20032;-36
2021/09/21 06:30:06;;;;;;;0.80;0.52;;;22.70;73.60;;;;;;5124137;28;20035;-36
2021/09/21 06:32:32;;;;;;;1.23;0.90;;;22.70;73.70;;;;;;5123884;28;20019;-36
2021/09/21 06:34:58;;;;;;;0.70;0.70;;;22.70;73.70;;;;;;5124477;28;20024;-37
2021/09/21 06:37:24;;;;;;;0.80;0.80;;;22.70;73.70;;;;;;5124231;28;20499;-36
2021/09/21 06:39:51;;;;;;;0.88;0.68;;;22.70;73.80;;;;;;5124255;28;20030;-36
2021/09/21 06:42:17;;;;;;;1.63;1.00;;;22.70;73.80;;;;;;5123885;28;20027;-37
2021/09/21 06:44:43;;;;;;;2.13;0.68;;;22.70;73.80;;;;;;5124011;28;20083;-37
2021/09/21 06:47:09;;;;;;;0.70;0.60;;;22.70;73.70;;;;;;5123683;28;20019;-36
2021/09/21 06:49:35;;;;;;;0.85;0.60;;;22.70;73.80;;;;;;5124006;28;20081;-36
2021/09/21 06:52:02;;;;;;;0.73;0.67;;;22.70;73.80;;;;;;5123547;28;20116;-36
2021/09/21 06:54:28;;;;;;;1.27;0.80;;;22.70;73.70;;;;;;5123831;28;20627;-36
2021/09/21 06:56:54;;;;;;;0.90;0.68;;;22.80;73.80;;;;;;5118352;28;20047;-36
2021/09/21 06:59:20;;;;;;;0.88;0.60;;;22.70;73.80;;;;;;5120912;28;20024;-36
2021/09/21 07:01:46;;;;;;;0.73;0.63;;;22.80;73.90;;;;;;5123301;28;20027;-36
2021/09/21 07:04:13;;;;;;;0.65;0.65;;;22.80;73.90;;;;;;5123618;28;20027;-37
2021/09/21 07:06:40;;;;;;;1.60;0.80;;;22.70;73.80;;;;;;5123793;28;20049;-36
2021/09/21 07:09:06;;;;;;;0.65;0.60;;;22.70;73.80;;;;;;5123336;28;20027;-36
2021/09/21 07:11:32;;;;;;;0.80;0.80;;;22.70;73.90;;;;;;5106329;28;20058;-36
2021/09/21 07:13:58;;;;;;;0.80;0.70;;;22.80;74.00;;;;;;5123202;28;20041;-36
2021/09/21 07:16:24;;;;;;;0.73;0.70;;;22.80;74.00;;;;;;5123346;28;20043;-36
2021/09/21 07:18:50;;;;;;;0.50;0.50;;;22.80;74.00;;;;;;5121900;28;20087;-36
2021/09/21 07:21:16;;;;;;;0.60;0.60;;;22.80;73.90;;;;;;5122945;28;20039;-37
2021/09/21 07:23:43;;;;;;;0.63;0.60;;;22.80;74.00;;;;;;5123417;28;20020;-36
2021/09/21 07:26:09;;;;;;;0.75;0.60;;;22.80;74.00;;;;;;5123331;28;20085;-36
2021/09/21 07:28:35;;;;;;;0.60;0.60;;;22.80;74.00;;;;;;5123258;28;20054;-36
2021/09/21 07:31:01;;;;;;;1.03;0.60;;;22.70;73.90;;;;;;5123352;28;20023;-36
2021/09/21 07:33:27;;;;;;;0.85;0.50;;;22.70;74.00;;;;;;5122938;28;20255;-37
2021/09/21 07:35:54;;;;;;;0.65;0.65;;;22.80;74.00;;;;;;5123027;28;20031;-36
2021/09/21 07:38:20;;;;;;;0.75;0.75;;;22.80;74.00;;;;;;5123272;28;20031;-36
2021/09/21 07:40:49;;;;;;;0.70;0.60;;;22.80;74.00;;;;;;5122892;28;20037;-36
2021/09/21 07:43:15;;;;;;;0.50;0.50;;;22.80;74.00;;;;;;5123013;28;20035;-36
2021/09/21 07:45:41;;;;;;;0.77;0.70;;;22.70;74.00;;;;;;5104793;28;20020;-36
2021/09/21 07:48:09;;;;;;;0.57;0.57;;;22.80;74.00;;;;;;5115252;28;20035;-37
2021/09/21 07:50:35;;;;;;;1.00;0.60;;;22.80;74.00;;;;;;5123002;28;20040;-37
2021/09/21 07:53:02;;;;;;;1.00;0.60;;;22.80;74.10;;;;;;5122568;28;20545;-37
2021/09/21 07:55:28;;;;;;;1.30;0.70;;;22.80;74.10;;;;;;5122746;28;20031;-37
2021/09/21 07:57:54;;;;;;;0.65;0.52;;;22.80;74.10;;;;;;5123194;28;20027;-36
2021/09/21 08:00:21;;;;;;;0.90;0.60;;;22.80;74.10;;;;;;5122735;28;20088;-36
2021/09/21 08:02:47;;;;;;;1.38;0.70;;;22.80;74.10;;;;;;5122622;28;20034;-36
2021/09/21 08:05:13;;;;;;;0.50;0.50;;;22.80;74.10;;;;;;5123005;28;20031;-36
2021/09/21 08:07:41;;;;;;;0.88;0.40;;;22.80;74.10;;;;;;5102579;28;20037;-36
2021/09/21 08:10:07;;;;;;;0.50;0.50;;;22.80;74.10;;;;;;5110174;28;20241;-36
2021/09/21 08:12:33;;;;;;;1.10;0.67;;;22.80;74.10;;;;;;5122900;28;20024;-36
2021/09/21 08:15:00;;;;;;;0.57;0.57;;;22.80;74.10;;;;;;5122900;28;20260;-37
2021/09/21 08:17:27;;;;;;;1.70;0.70;;;22.70;74.10;;;;;;5118436;28;20051;-36
2021/09/21 08:19:54;;;;;;;0.80;0.40;;;22.70;74.10;;;;;;5121735;28;20087;-36
2021/09/21 08:22:21;;;;;;;1.10;0.80;;;22.70;74.00;;;;;;5122738;28;20066;-36
2021/09/21 08:24:47;;;;;;;0.77;0.50;;;22.80;74.20;;;;;;5122739;28;20035;-36
2021/09/21 08:27:14;;;;;;;0.77;0.63;;;22.80;74.10;;;;;;5122794;28;20049;-36
2021/09/21 08:29:40;;;;;;;0.70;0.53;;;22.80;74.20;;;;;;5122894;28;20035;-36
2021/09/21 08:32:06;;;;;;;0.60;0.50;;;22.80;74.20;;;;;;5122738;28;20027;-36
2021/09/21 08:34:33;;;;;;;0.40;0.40;;;22.80;74.10;;;;;;5122974;28;20285;-36
2021/09/21 08:36:59;;;;;;;0.82;0.57;;;22.80;74.20;;;;;;5124488;28;20057;-36
2021/09/21 08:39:25;;;;;;;0.60;0.57;;;22.80;74.20;;;;;;5126836;28;20027;-36
2021/09/21 08:41:51;;;;;;;1.60;0.70;;;22.80;74.20;;;;;;5126787;28;20614;-36
2021/09/21 08:44:18;;;;;;;0.68;0.68;;;22.80;74.10;;;;;;5126649;28;20027;-36
2021/09/21 08:46:45;;;;;;;0.75;0.60;;;22.80;74.10;;;;;;5108259;28;20475;-36
2021/09/21 08:49:11;;;;;;;0.60;0.60;;;22.80;74.10;;;;;;5126500;28;20032;-36
2021/09/21 08:51:37;;;;;;;0.55;0.55;;;22.80;74.20;;;;;;5126358;28;20137;-36
2021/09/21 08:54:04;;;;;;;1.77;0.50;;;22.80;74.20;;;;;;5126076;28;20034;-36
2021/09/21 08:56:30;;;;;;;0.43;0.43;;;22.80;74.20;;;;;;5126094;28;20036;-36
2021/09/21 08:58:56;;;;;;;1.53;0.67;;;22.80;74.20;;;;;;5124468;28;20385;-36
2021/09/21 09:01:23;;;;;;;0.63;0.53;;;22.80;74.20;;;;;;5126411;28;20049;-41
2021/09/21 09:03:57;;;;;;;0.70;0.60;;;22.80;74.30;;;;;;5126396;28;20020;-36
2021/09/21 09:06:24;;;;;;;0.88;0.70;;;22.80;74.20;;;;;;5126330;28;20020;-36
2021/09/21 09:08:50;;;;;;;1.58;0.60;;;22.80;74.20;;;;;;5126163;28;20083;-36
2021/09/21 09:11:21;;;;;;;0.98;0.77;;;22.80;74.30;;;;;;5126050;28;20045;-36
2021/09/21 09:13:55;;;;;;;0.57;0.50;;;22.80;74.30;;;;;;5125968;28;20028;-36
2021/09/21 09:16:25;;;;;;;2.05;0.70;;;22.80;74.20;;;;;;5125628;28;20035;-36
2021/09/21 09:19:05;;;;;;;0.88;0.52;;;22.80;74.20;;;;;;5125374;28;20034;-36
2021/09/21 09:21:33;;;;;;;1.60;0.40;;;22.80;74.20;;;;;;5125957;28;20106;-36
2021/09/21 09:23:59;;;;;;;0.85;0.50;;;22.80;74.30;;;;;;5125721;28;20070;-37
2021/09/21 09:26:26;;;;;;;0.70;0.40;;;22.80;74.40;;;;;;5126005;28;20177;-36
2021/09/21 09:28:53;;;;;;;0.75;0.57;;;22.80;74.30;;;;;;5119138;28;20264;-36
2021/09/21 09:31:30;;;;;;;0.77;0.50;;;22.80;74.30;;;;;;5105445;28;20028;-36
2021/09/21 09:34:12;;;;;;;0.50;0.50;;;22.80;74.40;;;;;;5105189;28;20032;-36
2021/09/21 09:36:49;;;;;;;0.73;0.60;;;22.80;74.30;;;;;;5116111;28;20053;-36
2021/09/21 09:39:16;;;;;;;0.63;0.57;;;22.80;74.30;;;;;;5125083;28;20031;-36
2021/09/21 09:41:43;;;;;;;0.40;0.40;;;22.80;74.40;;;;;;5125586;28;20405;-36
2021/09/21 09:44:14;;;;;;;0.60;0.50;;;22.80;74.40;;;;;;5107262;28;20028;-36
2021/09/21 09:46:45;;;;;;;0.40;0.38;;;22.80;74.40;;;;;;5125577;28;20028;-36
2021/09/21 09:49:11;;;;;;;1.15;0.60;;;22.80;74.30;;;;;;5125024;28;20480;-36
2021/09/21 09:51:48;;;;;;;0.60;0.50;;;22.80;74.30;;;;;;5125220;28;20101;-36
2021/09/21 09:54:15;;;;;;;0.50;0.43;;;22.80;74.40;;;;;;5107525;28;20028;-36
2021/09/21 09:56:42;;;;;;;0.80;0.70;;;22.80;74.40;;;;;;5124954;28;20059;-36
2021/09/21 09:59:09;;;;;;;0.50;0.50;;;22.80;74.30;;;;;;5107052;28;20024;-37
2021/09/21 10:01:35;;;;;;;0.52;0.52;;;22.80;74.30;;;;;;5125199;28;20031;-36
2021/09/21 10:04:02;;;;;;;0.50;0.40;;;22.80;74.30;;;;;;5124915;28;20035;-36
2021/09/21 10:06:34;;;;;;;0.40;0.40;;;22.80;74.40;;;;;;5124707;28;20038;-36
2021/09/21 10:09:00;;;;;;;0.40;0.40;;;22.80;74.40;;;;;;5124845;28;20035;-36
2021/09/21 10:11:27;;;;;;;0.60;0.40;;;22.80;74.40;;;;;;5124357;28;20027;-36
2021/09/21 10:13:53;;;;;;;0.50;0.50;;;22.80;74.40;;;;;;5089843;28;20019;-36
2021/09/21 10:16:20;;;;;;;0.73;0.60;;;22.80;74.40;;;;;;5124556;28;20050;-36
2021/09/21 10:18:52;;;;;;;1.30;0.40;;;22.80;74.40;;;;;;5124697;28;20031;-36
2021/09/21 10:21:18;;;;;;;0.50;0.40;;;22.80;74.40;;;;;;5124728;28;20039;-36
2021/09/21 10:23:47;;;;;;;0.52;0.47;;;22.80;74.50;;;;;;5089323;28;20028;-37
2021/09/21 10:26:19;;;;;;;0.50;0.50;;;22.80;74.30;;;;;;5106040;28;20518;-36
2021/09/21 10:28:50;;;;;;;0.63;0.57;;;22.80;74.40;;;;;;5124243;28;20062;-36
2021/09/21 10:31:21;;;;;;;0.60;0.40;;;22.80;74.40;;;;;;5124662;28;20028;-36
2021/09/21 10:33:47;;;;;;;0.73;0.55;;;22.80;75.10;;;;;;5124482;28;20066;-36
2021/09/21 10:36:22;;;;;;;0.80;0.50;;;22.80;74.50;;;;;;5124026;28;20027;-36
2021/09/21 10:38:59;;;;;;;0.60;0.60;;;22.80;74.50;;;;;;5124483;28;20058;-37
2021/09/21 10:41:26;;;;;;;0.60;0.50;;;22.80;74.50;;;;;;5124276;28;20035;-36
2021/09/21 10:44:05;;;;;;;;;;;22.80;74.50;;;;;;5124846;28;20027;-36
2021/09/21 10:46:41;;;;;;;2.05;0.50;;;22.80;74.50;;;;;;5122925;28;19918;-36
2021/09/21 10:49:09;;;;;;;0.68;0.40;;;22.80;74.50;;;;;;5087252;28;20050;-36
2021/09/21 10:51:35;;;;;;;0.57;0.57;;;22.80;74.50;;;;;;5103447;28;20054;-36
2021/09/21 10:54:04;;;;;;;0.60;0.60;;;22.80;74.50;;;;;;5085432;28;20479;-36
2021/09/21 10:56:30;;;;;;;0.47;0.43;;;22.80;74.50;;;;;;5103405;28;20028;-36
2021/09/21 10:58:58;;;;;;;0.90;0.60;;;22.80;74.50;;;;;;5110098;28;20068;-36
2021/09/21 11:01:25;;;;;;;0.40;0.40;;;22.80;74.40;;;;;;5123885;28;20043;-36
2021/09/21 11:03:51;;;;;;;0.40;0.40;;;22.80;74.50;;;;;;5123924;28;20027;-36
2021/09/21 11:06:17;;;;;;;0.65;0.50;;;22.80;74.50;;;;;;5123318;28;20016;-36
2021/09/21 11:08:44;;;;;;;0.45;0.43;;;22.80;74.50;;;;;;5119838;28;20110;-36
2021/09/21 11:11:11;;;;;;;0.45;0.45;;;22.80;74.40;;;;;;5121088;28;20055;-36
2021/09/21 11:13:40;;;;;;;0.50;0.50;;;22.80;74.40;;;;;;5123577;28;20028;-36
2021/09/21 11:16:09;;;;;;;1.30;0.60;;;22.80;74.40;;;;;;5122861;28;20035;-36
2021/09/21 11:18:36;;;;;;;0.50;0.30;;;22.80;74.50;;;;;;5118647;28;20032;-36
2021/09/21 11:21:05;;;;;;;1.00;0.40;;;22.80;74.60;;;;;;5112525;28;20489;-36
2021/09/21 11:23:36;;;;;;;0.55;0.47;;;22.80;74.60;;;;;;5114488;28;20035;-36
2021/09/21 11:26:05;;;;;;;0.40;0.40;;;22.80;74.60;;;;;;5114300;28;20050;-36
2021/09/21 11:28:32;;;;;;;0.40;0.40;;;22.80;74.60;;;;;;5117146;28;20020;-36
2021/09/21 11:30:59;;;;;;;0.40;0.30;;;22.80;74.50;;;;;;5122998;28;20074;-36
2021/09/21 11:33:32;;;;;;;0.30;0.30;;;22.80;74.60;;;;;;5105241;28;20623;-36
2021/09/21 11:36:04;;;;;;;0.55;0.40;;;22.80;74.50;;;;;;5122706;28;20058;-36
2021/09/21 11:38:32;;;;;;;0.32;0.32;;;22.80;74.50;;;;;;5123005;28;20110;-36
2021/09/21 11:40:59;;;;;;;1.00;0.40;;;22.80;74.50;;;;;;5130374;27;20025;-36
2021/09/21 11:43:25;;;;;;;0.67;0.47;;;22.80;74.50;;;;;;5132450;27;20468;-36
2021/09/21 11:45:51;;;;;;;0.40;0.40;;;22.80;74.60;;;;;;5122824;28;20062;-36
2021/09/21 11:48:18;;;;;;;0.63;0.40;;;22.80;74.50;;;;;;5104905;28;20027;-36
2021/09/21 11:50:44;;;;;;;0.60;0.40;;;22.80;74.60;;;;;;5122350;28;20251;-36
2021/09/21 11:53:15;;;;;;;0.80;0.53;;;22.80;74.60;;;;;;5130199;28;20031;-36
2021/09/21 11:55:43;;;;;;;0.40;0.40;;;22.80;74.50;;;;;;5129897;28;20046;-36
2021/09/21 11:58:10;;;;;;;0.73;0.40;;;22.80;74.60;;;;;;5122074;28;20043;-37
2021/09/21 12:00:38;;;;;;;0.52;0.50;;;22.80;74.60;;;;;;5133982;28;20075;-36
2021/09/21 12:03:06;;;;;;;0.60;0.45;;;22.80;74.60;;;;;;5122690;28;20031;-36
2021/09/21 12:05:34;;;;;;;0.45;0.40;;;22.80;74.60;;;;;;5121174;28;20648;-37
2021/09/21 12:08:04;;;;;;;0.40;0.40;;;22.80;74.50;;;;;;5122193;28;20087;-36
2021/09/21 12:10:30;;;;;;;0.60;0.60;;;22.90;74.70;;;;;;5103244;28;20024;-36
2021/09/21 12:13:00;;;;;;;0.80;0.50;;;22.90;74.60;;;;;;5126373;28;20047;-41
2021/09/21 12:15:28;;;;;;;0.38;0.38;;;22.90;74.60;;;;;;5125539;28;20105;-36
2021/09/21 12:17:55;;;;;;;0.40;0.40;;;22.90;74.70;;;;;;5126252;28;20042;-36
2021/09/21 12:20:23;;;;;;;0.52;0.50;;;22.90;74.60;;;;;;5126618;28;20024;-36
2021/09/21 12:22:51;;;;;;;0.70;0.40;;;22.80;74.60;;;;;;5126714;28;20019;-37
2021/09/21 12:25:19;;;;;;;0.50;0.50;;;22.90;74.20;;;;;;5108401;28;20071;-37
2021/09/21 12:27:44;;;;;;;;;;;22.80;73.30;;;;;;5108579;28;20054;-36
2021/09/21 12:30:11;;;;;;;0.43;0.40;;;22.80;72.70;;;;;;5126367;28;19908;-36
2021/09/21 12:32:37;;;;;;;0.50;0.50;;;22.80;73.50;;;;;;5126592;28;20026;-36
2021/09/21 12:35:07;;;;;;;0.68;0.40;;;22.80;73.00;;;;;;5126637;28;20105;-36
2021/09/21 12:37:40;;;;;;;1.13;0.50;;;22.80;73.10;;;;;;5125940;28;20396;-36
2021/09/21 12:40:11;;;;;;;0.40;0.40;;;22.80;73.80;;;;;;5126696;28;20368;-36
2021/09/21 12:42:41;;;;;;;0.30;0.30;;;22.80;73.80;;;;;;5125131;28;20047;-36
2021/09/21 12:45:08;;;;;;;0.63;0.50;;;22.80;73.70;;;;;;5099863;28;20047;-37
2021/09/21 12:47:38;;;;;;;0.40;0.40;;;22.80;73.70;;;;;;5125841;28;20035;-36
2021/09/21 12:50:15;;;;;;;0.40;0.40;;;22.80;73.70;;;;;;5118370;28;20044;-37
2021/09/21 12:52:54;;;;;;;1.15;0.50;;;22.80;73.80;;;;;;5110679;28;20499;-37
2021/09/21 12:55:32;;;;;;;0.40;0.38;;;22.80;73.80;;;;;;5125672;28;20038;-36